This is the latest recevied weather packets stored in our database for station/object WD9EKA. If no packets are shown the sender has not sent any weather packets the latest 10 day(s).
| Time | Temp. | Humidity | Pressure | Rain* | Wind** | Luminosity | Snow |
|---|---|---|---|---|---|---|---|
| 1777920359 | 18.89° C | 85% | 1001.2 hPa | 0 mm | - | - | - |
| 1777920039 | 18.33° C | 86% | 1001.6 hPa | 0 mm | - | - | - |
| 1777919719 | 18.33° C | 87% | 1001.5 hPa | 0 mm | - | - | - |
| 1777919399 | 17.78° C | 87% | 1001.8 hPa | 0 mm | - | - | - |
| 1777919079 | 18.33° C | 87% | 1001.5 hPa | 0 mm | - | - | - |
| 1777918759 | 18.33° C | 86% | 1002.1 hPa | 0 mm | - | - | - |
| 1777918439 | 18.89° C | 86% | 1001.8 hPa | 0 mm | - | - | - |
| 1777918120 | 18.89° C | 86% | 1001.6 hPa | 0 mm | - | - | - |
| 1777917799 | 18.89° C | 87% | 1001.6 hPa | 0.25 mm | - | - | - |
| 1777917479 | 18.33° C | 88% | 1002 hPa | 0.25 mm | - | - | - |
| 1777917160 | 17.78° C | 91% | 1002 hPa | 0.51 mm | - | - | - |
| 1777916839 | 17.22° C | 94% | 1001.9 hPa | 0.51 mm | - | - | - |
| 1777916519 | 16.67° C | 96% | 1002.1 hPa | 0.51 mm | - | - | - |
| 1777915880 | 15.56° C | 98% | 1002.4 hPa | 0.51 mm | - | - | - |
| 1777915559 | 15° C | 98% | 1002.4 hPa | 0.76 mm | - | - | - |
| 1777915239 | 14.44° C | 98% | 1002.8 hPa | 0.76 mm | - | - | - |
| 1777914919 | 14.44° C | 97% | 1003.2 hPa | 0.76 mm | - | - | - |
| 1777914600 | 14.44° C | 96% | 1003 hPa | 0.76 mm | - | - | - |
| 1777914280 | 14.44° C | 96% | 1003.8 hPa | 1.02 mm | - | - | - |
| 1777913959 | 14.44° C | 96% | 1003.3 hPa | 0.76 mm | - | - | - |
| 1777913640 | 14.44° C | 96% | 1003.3 hPa | 0.51 mm | - | - | - |
| 1777913000 | 14.44° C | 94% | 1003.1 hPa | 0.51 mm | - | - | - |
| 1777912680 | 14.44° C | 94% | 1003.1 hPa | 0.51 mm | - | - | - |
| 1777912359 | 14.44° C | 93% | 1003.2 hPa | 0.51 mm | - | - | - |
| 1777912040 | 15° C | 92% | 1002.9 hPa | 0.25 mm | - | - | - |
* Rain latest hour (hover to see other rain measurements)
** Current wind speed in m/s (hover to see current wind gust speed)